Aviation Digital Data Service (ADDS)

Output produced by METARs form (0557 UTC 19 March 2019)
found at http://www.aviationweather.gov/metar/data/
 
METAR text: MMTJ 190444Z 00000KT 8SM SKC 14/12 A2999
Conditions at: MMTJ (TIJUANA INTL ARP, MX) observed 0444 UTC 19 March 2019
Temperature: 14.0°C (57°F)
Dewpoint: 12.0°C (54°F) [RH = 88%]
Pressure (altimeter): 29.99 inches Hg (1015.7 mb)
Winds: calm
Visibility: 8 miles (13 km)
Ceiling: at least 12,000 feet AGL
Clouds: clear skies
Weather: no significant weather observed at this time

METAR text: MMTJ 190344Z 00000KT 8SM SKC 14/11 A3000 RMK HZY
Conditions at: MMTJ (TIJUANA INTL ARP, MX) observed 0344 UTC 19 March 2019
Temperature: 14.0°C (57°F)
Dewpoint: 11.0°C (52°F) [RH = 82%]
Pressure (altimeter): 30.00 inches Hg (1016.0 mb)
Winds: calm
Visibility: 8 miles (13 km)
Ceiling: at least 12,000 feet AGL
Clouds: clear skies
Weather: no significant weather observed at this time

METAR text: MMTJ 190242Z 36004KT 8SM SKC 16/10 A2999 RMK SLP159 54000 900 HZY
Conditions at: MMTJ (TIJUANA INTL ARP, MX) observed 0242 UTC 19 March 2019
Temperature: 16.0°C (61°F)
Dewpoint: 10.0°C (50°F) [RH = 68%]
Pressure (altimeter): 29.99 inches Hg (1015.7 mb)
[Sea-level pressure: 1015.9 mb]
Winds: from the N (360 degrees) at 5 MPH (4 knots; 2.1 m/s)
Visibility: 8 miles (13 km)
Ceiling: at least 12,000 feet AGL
Clouds: clear skies
Weather: no significant weather observed at this time

METAR text: MMTJ 190140Z 34004KT 10SM SKC 18/11 A2999 RMK HZY ISOL SC
Conditions at: MMTJ (TIJUANA INTL ARP, MX) observed 0140 UTC 19 March 2019
Temperature: 18.0°C (64°F)
Dewpoint: 11.0°C (52°F) [RH = 64%]
Pressure (altimeter): 29.99 inches Hg (1015.7 mb)
Winds: from the NNW (340 degrees) at 5 MPH (4 knots; 2.1 m/s)
Visibility: 10 or more miles (16+ km)
Ceiling: at least 12,000 feet AGL
Clouds: clear skies
Weather: no significant weather observed at this time

METAR text: MMTJ 190045Z 36004KT 10SM SKC 20/07 A2999 RMK HZY ISOL SC
Conditions at: MMTJ (TIJUANA INTL ARP, MX) observed 0045 UTC 19 March 2019
Temperature: 20.0°C (68°F)
Dewpoint: 7.0°C (45°F) [RH = 43%]
Pressure (altimeter): 29.99 inches Hg (1015.7 mb)
Winds: from the N (360 degrees) at 5 MPH (4 knots; 2.1 m/s)
Visibility: 10 or more miles (16+ km)
Ceiling: at least 12,000 feet AGL
Clouds: clear skies
Weather: no significant weather observed at this time

METAR text: MMTJ 182341Z 31004KT 10SM SKC 20/10 A2999 RMK SLP158 52002 900 HZY ISOL CU
Conditions at: MMTJ (TIJUANA INTL ARP, MX) observed 2341 UTC 18 March 2019
Temperature: 20.0°C (68°F)
Dewpoint: 10.0°C (50°F) [RH = 53%]
Pressure (altimeter): 29.99 inches Hg (1015.7 mb)
[Sea-level pressure: 1015.8 mb]
Winds: from the NW (310 degrees) at 5 MPH (4 knots; 2.1 m/s)
Visibility: 10 or more miles (16+ km)
Ceiling: at least 12,000 feet AGL
Clouds: clear skies
Weather: no significant weather observed at this time

METAR text: MMTJ 182243Z 30009KT 10SM SKC 21/05 A3000 RMK HZY ISOL CU
Conditions at: MMTJ (TIJUANA INTL ARP, MX) observed 2243 UTC 18 March 2019
Temperature: 21.0°C (70°F)
Dewpoint: 5.0°C (41°F) [RH = 35%]
Pressure (altimeter): 30.00 inches Hg (1016.0 mb)
Winds: from the WNW (300 degrees) at 10 MPH (9 knots; 4.6 m/s)
Visibility: 10 or more miles (16+ km)
Ceiling: at least 12,000 feet AGL
Clouds: clear skies
Weather: no significant weather observed at this time

METAR text: MMTJ 182145Z 30014KT 10SM SKC 22/05 A2999 RMK HZY ISOL CU
Conditions at: MMTJ (TIJUANA INTL ARP, MX) observed 2145 UTC 18 March 2019
Temperature: 22.0°C (72°F)
Dewpoint: 5.0°C (41°F) [RH = 33%]
Pressure (altimeter): 29.99 inches Hg (1015.7 mb)
Winds: from the WNW (300 degrees) at 16 MPH (14 knots; 7.2 m/s)
Visibility: 10 or more miles (16+ km)
Ceiling: at least 12,000 feet AGL
Clouds: clear skies
Weather: no significant weather observed at this time

METAR text: MMTJ 182051Z 31007KT 10SM SKC 23/08 A2999 RMK SLP155 57003 964 HZY CU E
Conditions at: MMTJ (TIJUANA INTL ARP, MX) observed 2051 UTC 18 March 2019
Temperature: 23.0°C (73°F)
Dewpoint: 8.0°C (46°F) [RH = 38%]
Pressure (altimeter): 29.99 inches Hg (1015.7 mb)
[Sea-level pressure: 1015.5 mb]
Winds: from the NW (310 degrees) at 8 MPH (7 knots; 3.6 m/s)
Visibility: 10 or more miles (16+ km)
Ceiling: at least 12,000 feet AGL
Clouds: clear skies
Weather: no significant weather observed at this time

METAR text: MMTJ 181940Z 28005KT 10SM SKC 22/10 A3001 RMK HZY CU E
Conditions at: MMTJ (TIJUANA INTL ARP, MX) observed 1940 UTC 18 March 2019
Temperature: 22.0°C (72°F)
Dewpoint: 10.0°C (50°F) [RH = 46%]
Pressure (altimeter): 30.01 inches Hg (1016.3 mb)
Winds: from the W (280 degrees) at 6 MPH (5 knots; 2.6 m/s)
Visibility: 10 or more miles (16+ km)
Ceiling: at least 12,000 feet AGL
Clouds: clear skies
Weather: no significant weather observed at this time

METAR text: MMTJ 181848Z 24006KT 10SM SKC 22/08 A3002 RMK HZY CU E
Conditions at: MMTJ (TIJUANA INTL ARP, MX) observed 1848 UTC 18 March 2019
Temperature: 22.0°C (72°F)
Dewpoint: 8.0°C (46°F) [RH = 41%]
Pressure (altimeter): 30.02 inches Hg (1016.7 mb)
Winds: from the WSW (240 degrees) at 7 MPH (6 knots; 3.1 m/s)
Visibility: 10 or more miles (16+ km)
Ceiling: at least 12,000 feet AGL
Clouds: clear skies
Weather: no significant weather observed at this time

METAR text: MMTJ 181752Z 29005KT 10SM SKC 21/06 A3002 RMK SLP159 57005 976 HZY
Conditions at: MMTJ (TIJUANA INTL ARP, MX) observed 1752 UTC 18 March 2019
Temperature: 21.0°C (70°F)
Dewpoint: 6.0°C (43°F) [RH = 38%]
Pressure (altimeter): 30.02 inches Hg (1016.7 mb)
[Sea-level pressure: 1015.9 mb]
Winds: from the WNW (290 degrees) at 6 MPH (5 knots; 2.6 m/s)
Visibility: 10 or more miles (16+ km)
Ceiling: at least 12,000 feet AGL
Clouds: clear skies
Weather: no significant weather observed at this time

METAR text: MMTJ 181655Z 19005KT 10SM SKC 19/06 A3002 RMK HZY
Conditions at: MMTJ (TIJUANA INTL ARP, MX) observed 1655 UTC 18 March 2019
Temperature: 19.0°C (66°F)
Dewpoint: 6.0°C (43°F) [RH = 43%]
Pressure (altimeter): 30.02 inches Hg (1016.7 mb)
Winds: from the S (190 degrees) at 6 MPH (5 knots; 2.6 m/s)
Visibility: 10 or more miles (16+ km)
Ceiling: at least 12,000 feet AGL
Clouds: clear skies
Weather: no significant weather observed at this time

METAR text: MMTJ 181547Z 00000KT 10SM SKC 15/08 A3002 RMK HZY
Conditions at: MMTJ (TIJUANA INTL ARP, MX) observed 1547 UTC 18 March 2019
Temperature: 15.0°C (59°F)
Dewpoint: 8.0°C (46°F) [RH = 63%]
Pressure (altimeter): 30.02 inches Hg (1016.7 mb)
Winds: calm
Visibility: 10 or more miles (16+ km)
Ceiling: at least 12,000 feet AGL
Clouds: clear skies
Weather: no significant weather observed at this time

METAR text: MMTJ 181458Z RTD 14005KT 8SM SKC 12/08 A3002 RMK SLP165 52006 901 HZY
Conditions at: MMTJ (TIJUANA INTL ARP, MX) observed 1458 UTC 18 March 2019
Temperature: 12.0°C (54°F)
Dewpoint: 8.0°C (46°F) [RH = 76%]
Pressure (altimeter): 30.02 inches Hg (1016.7 mb)
[Sea-level pressure: 1016.5 mb]
Winds: from the SE (140 degrees) at 6 MPH (5 knots; 2.6 m/s)
Visibility: 8 miles (13 km)
Ceiling: at least 12,000 feet AGL
Clouds: clear skies
Weather: no significant weather observed at this time

METAR text: MMTJ 181342Z 09003KT 6SM SKC 11/07 A3000 RMK HZY
Conditions at: MMTJ (TIJUANA INTL ARP, MX) observed 1342 UTC 18 March 2019
Temperature: 11.0°C (52°F)
Dewpoint: 7.0°C (45°F) [RH = 76%]
Pressure (altimeter): 30.00 inches Hg (1016.0 mb)
Winds: from the E (90 degrees) at 3 MPH (3 knots; 1.5 m/s)
Visibility: 6 miles (10 km)
Ceiling: at least 12,000 feet AGL
Clouds: clear skies
Weather: no significant weather observed at this time

METAR text: MMTJ 181241Z 00000KT 7SM SKC 11/07 A2999 RMK HZY
Conditions at: MMTJ (TIJUANA INTL ARP, MX) observed 1241 UTC 18 March 2019
Temperature: 11.0°C (52°F)
Dewpoint: 7.0°C (45°F) [RH = 76%]
Pressure (altimeter): 29.99 inches Hg (1015.7 mb)
Winds: calm
Visibility: 7 miles (11 km)
Ceiling: at least 12,000 feet AGL
Clouds: clear skies
Weather: no significant weather observed at this time

METAR text: MMTJ 181143Z 07003KT 7SM SKC 12/06 A2999 RMK SLP158 57008 900 HZY
Conditions at: MMTJ (TIJUANA INTL ARP, MX) observed 1143 UTC 18 March 2019
Temperature: 12.0°C (54°F)
Dewpoint: 6.0°C (43°F) [RH = 67%]
Pressure (altimeter): 29.99 inches Hg (1015.7 mb)
[Sea-level pressure: 1015.8 mb]
Winds: from the ENE (70 degrees) at 3 MPH (3 knots; 1.5 m/s)
Visibility: 7 miles (11 km)
Ceiling: at least 12,000 feet AGL
Clouds: clear skies
Weather: no significant weather observed at this time

METAR text: MMTJ 181042Z 00000KT 7SM SKC 12/07 A2999 RMK HZY
Conditions at: MMTJ (TIJUANA INTL ARP, MX) observed 1042 UTC 18 March 2019
Temperature: 12.0°C (54°F)
Dewpoint: 7.0°C (45°F) [RH = 71%]
Pressure (altimeter): 29.99 inches Hg (1015.7 mb)
Winds: calm
Visibility: 7 miles (11 km)
Ceiling: at least 12,000 feet AGL
Clouds: clear skies
Weather: no significant weather observed at this time

METAR text: MMTJ 180940Z 13005KT 7SM SKC 12/07 A3000 RMK HZY
Conditions at: MMTJ (TIJUANA INTL ARP, MX) observed 0940 UTC 18 March 2019
Temperature: 12.0°C (54°F)
Dewpoint: 7.0°C (45°F) [RH = 71%]
Pressure (altimeter): 30.00 inches Hg (1016.0 mb)
Winds: from the SE (130 degrees) at 6 MPH (5 knots; 2.6 m/s)
Visibility: 7 miles (11 km)
Ceiling: at least 12,000 feet AGL
Clouds: clear skies
Weather: no significant weather observed at this time

METAR text: MMTJ 180842Z 12003KT 7SM SKC 12/06 A3002 RMK SLP165 58004 962 HZY
Conditions at: MMTJ (TIJUANA INTL ARP, MX) observed 0842 UTC 18 March 2019
Temperature: 12.0°C (54°F)
Dewpoint: 6.0°C (43°F) [RH = 67%]
Pressure (altimeter): 30.02 inches Hg (1016.7 mb)
[Sea-level pressure: 1016.5 mb]
Winds: from the ESE (120 degrees) at 3 MPH (3 knots; 1.5 m/s)
Visibility: 7 miles (11 km)
Ceiling: at least 12,000 feet AGL
Clouds: clear skies
Weather: no significant weather observed at this time

METAR text: MMTJ 180741Z 00000KT 7SM SKC 13/06 A3002 RMK HZY
Conditions at: MMTJ (TIJUANA INTL ARP, MX) observed 0741 UTC 18 March 2019
Temperature: 13.0°C (55°F)
Dewpoint: 6.0°C (43°F) [RH = 62%]
Pressure (altimeter): 30.02 inches Hg (1016.7 mb)
Winds: calm
Visibility: 7 miles (11 km)
Ceiling: at least 12,000 feet AGL
Clouds: clear skies
Weather: no significant weather observed at this time

METAR text: MMTJ 180640Z 11003KT 7SM SKC 14/03 A3003 RMK HZY
Conditions at: MMTJ (TIJUANA INTL ARP, MX) observed 0640 UTC 18 March 2019
Temperature: 14.0°C (57°F)
Dewpoint: 3.0°C (37°F) [RH = 47%]
Pressure (altimeter): 30.03 inches Hg (1017.0 mb)
Winds: from the ESE (110 degrees) at 3 MPH (3 knots; 1.5 m/s)
Visibility: 7 miles (11 km)
Ceiling: at least 12,000 feet AGL
Clouds: clear skies
Weather: no significant weather observed at this time

METAR text: MMTJ 180542Z 00000KT 7SM SKC 14/07 A3004 RMK SLP170 53012 959 HZY
Conditions at: MMTJ (TIJUANA INTL ARP, MX) observed 0542 UTC 18 March 2019
Temperature: 14.0°C (57°F)
Dewpoint: 7.0°C (45°F) [RH = 63%]
Pressure (altimeter): 30.04 inches Hg (1017.4 mb)
[Sea-level pressure: 1017.0 mb]
Winds: calm
Visibility: 7 miles (11 km)
Ceiling: at least 12,000 feet AGL
Clouds: clear skies
Weather: no significant weather observed at this time

METAR text: MMTJ 180442Z 00000KT 7SM SKC 15/06 A3004 RMK HZY
Conditions at: MMTJ (TIJUANA INTL ARP, MX) observed 0442 UTC 18 March 2019
Temperature: 15.0°C (59°F)
Dewpoint: 6.0°C (43°F) [RH = 55%]
Pressure (altimeter): 30.04 inches Hg (1017.4 mb)
Winds: calm
Visibility: 7 miles (11 km)
Ceiling: at least 12,000 feet AGL
Clouds: clear skies
Weather: no significant weather observed at this time

METAR text: MMTJ 180347Z 00000KT 8SM SKC 16/06 A3002 RMK HZY
Conditions at: MMTJ (TIJUANA INTL ARP, MX) observed 0347 UTC 18 March 2019
Temperature: 16.0°C (61°F)
Dewpoint: 6.0°C (43°F) [RH = 51%]
Pressure (altimeter): 30.02 inches Hg (1016.7 mb)
Winds: calm
Visibility: 8 miles (13 km)
Ceiling: at least 12,000 feet AGL
Clouds: clear skies
Weather: no significant weather observed at this time

METAR text: MMTJ 180244Z 36004KT 8SM SKC 17/07 A3002 RMK SLP159 54000 956 HZY
Conditions at: MMTJ (TIJUANA INTL ARP, MX) observed 0244 UTC 18 March 2019
Temperature: 17.0°C (63°F)
Dewpoint: 7.0°C (45°F) [RH = 52%]
Pressure (altimeter): 30.02 inches Hg (1016.7 mb)
[Sea-level pressure: 1015.9 mb]
Winds: from the N (360 degrees) at 5 MPH (4 knots; 2.1 m/s)
Visibility: 8 miles (13 km)
Ceiling: at least 12,000 feet AGL
Clouds: clear skies
Weather: no significant weather observed at this time

METAR text: MMTJ 180144Z 36005KT 10SM SKC 19/07 A3001 RMK HZY
Conditions at: MMTJ (TIJUANA INTL ARP, MX) observed 0144 UTC 18 March 2019
Temperature: 19.0°C (66°F)
Dewpoint: 7.0°C (45°F) [RH = 46%]
Pressure (altimeter): 30.01 inches Hg (1016.3 mb)
Winds: from the N (360 degrees) at 6 MPH (5 knots; 2.6 m/s)
Visibility: 10 or more miles (16+ km)
Ceiling: at least 12,000 feet AGL
Clouds: clear skies
Weather: no significant weather observed at this time

METAR text: MMTJ 180044Z 00000KT 10SM SKC 21/04 A2999 RMK HZY
Conditions at: MMTJ (TIJUANA INTL ARP, MX) observed 0044 UTC 18 March 2019
Temperature: 21.0°C (70°F)
Dewpoint: 4.0°C (39°F) [RH = 33%]
Pressure (altimeter): 29.99 inches Hg (1015.7 mb)
Winds: calm
Visibility: 10 or more miles (16+ km)
Ceiling: at least 12,000 feet AGL
Clouds: clear skies
Weather: no significant weather observed at this time

METAR text: MMTJ 172342Z 30008KT 10SM SKC 22/06 A2999 RMK SLP159 57012 901 HZY ISOL SC
Conditions at: MMTJ (TIJUANA INTL ARP, MX) observed 2342 UTC 17 March 2019
Temperature: 22.0°C (72°F)
Dewpoint: 6.0°C (43°F) [RH = 35%]
Pressure (altimeter): 29.99 inches Hg (1015.7 mb)
[Sea-level pressure: 1015.9 mb]
Winds: from the WNW (300 degrees) at 9 MPH (8 knots; 4.1 m/s)
Visibility: 10 or more miles (16+ km)
Ceiling: at least 12,000 feet AGL
Clouds: clear skies
Weather: no significant weather observed at this time

METAR text: MMTJ 172241Z 30010KT 10SM SKC 22/08 A2999 RMK HZY ISOL SC
Conditions at: MMTJ (TIJUANA INTL ARP, MX) observed 2241 UTC 17 March 2019
Temperature: 22.0°C (72°F)
Dewpoint: 8.0°C (46°F) [RH = 41%]
Pressure (altimeter): 29.99 inches Hg (1015.7 mb)
Winds: from the WNW (300 degrees) at 12 MPH (10 knots; 5.1 m/s)
Visibility: 10 or more miles (16+ km)
Ceiling: at least 12,000 feet AGL
Clouds: clear skies
Weather: no significant weather observed at this time

METAR text: MMTJ 172144Z 32009KT 10SM SKC 22/08 A2999 RMK HZY SC E
Conditions at: MMTJ (TIJUANA INTL ARP, MX) observed 2144 UTC 17 March 2019
Temperature: 22.0°C (72°F)
Dewpoint: 8.0°C (46°F) [RH = 41%]
Pressure (altimeter): 29.99 inches Hg (1015.7 mb)
Winds: from the NW (320 degrees) at 10 MPH (9 knots; 4.6 m/s)
Visibility: 10 or more miles (16+ km)
Ceiling: at least 12,000 feet AGL
Clouds: clear skies
Weather: no significant weather observed at this time

METAR text: MMTJ 172045Z 27006KT 10SM SKC 23/08 A3000 RMK SLP169 57015 902 HZY SC E
Conditions at: MMTJ (TIJUANA INTL ARP, MX) observed 2045 UTC 17 March 2019
Temperature: 23.0°C (73°F)
Dewpoint: 8.0°C (46°F) [RH = 38%]
Pressure (altimeter): 30.00 inches Hg (1016.0 mb)
[Sea-level pressure: 1016.9 mb]
Winds: from the W (270 degrees) at 7 MPH (6 knots; 3.1 m/s)
Visibility: 10 or more miles (16+ km)
Ceiling: at least 12,000 feet AGL
Clouds: clear skies
Weather: no significant weather observed at this time

METAR text: MMTJ 171945Z 28011KT 10SM SKC 23/07 A3002 RMK HZY
Conditions at: MMTJ (TIJUANA INTL ARP, MX) observed 1945 UTC 17 March 2019
Temperature: 23.0°C (73°F)
Dewpoint: 7.0°C (45°F) [RH = 36%]
Pressure (altimeter): 30.02 inches Hg (1016.7 mb)
Winds: from the W (280 degrees) at 13 MPH (11 knots; 5.7 m/s)
Visibility: 10 or more miles (16+ km)
Ceiling: at least 12,000 feet AGL
Clouds: clear skies
Weather: no significant weather observed at this time

METAR text: MMTJ 171841Z 00000KT 10SM SKC 23/06 A3002 RMK HZY
Conditions at: MMTJ (TIJUANA INTL ARP, MX) observed 1841 UTC 17 March 2019
Temperature: 23.0°C (73°F)
Dewpoint: 6.0°C (43°F) [RH = 33%]
Pressure (altimeter): 30.02 inches Hg (1016.7 mb)
Winds: calm
Visibility: 10 or more miles (16+ km)
Ceiling: at least 12,000 feet AGL
Clouds: clear skies
Weather: no significant weather observed at this time

Forecast for: MMTJ (TIJUANA INTL ARP, MX)
Text: TAF MMTJ 190325Z 1906/2012 36005KT P6SM SCT020 TX23/1921Z TN12/1912Z
Forecast period: 0600 to 1800 UTC 19 March 2019
Forecast type: FROM: standard forecast or significant change
Winds: from the N (360 degrees) at 6 MPH (5 knots; 2.6 m/s)
Visibility: 6 or more miles 10+ km)
Ceiling: at least 12,000 feet AGL
Clouds: scattered clouds at 2000 feet AGL
Weather: no significant weather forecast for this period
Text: TEMPO 1911/1915 3SM BR HZ BKN010
Forecast period: 1100 to 1500 UTC 19 March 2019
Forecast type: TEMPORARY: The following changes expected for less than half the time period
Visibility: 3 miles (5 km)
Ceiling: 1000 feet AGL
Clouds: broken clouds at 1000 feet AGL
Weather: BR HZ  (mist, haze)
Text: FM191800 28010KT P6SM SCT030 SCT250
Forecast period: 1800 UTC 19 March 2019 to 0600 UTC 20 March 2019
Forecast type: FROM: standard forecast or significant change
Winds: from the W (280 degrees) at 12 MPH (10 knots; 5.1 m/s)
Visibility: 6 or more miles 10+ km)
Ceiling: at least 12,000 feet AGL
Clouds: scattered clouds at 3000 feet AGL
scattered clouds at 25000 feet AGL
Weather: no significant weather forecast for this period
Text: FM200600 00000KT 6SM HZ BKN018
Forecast period: 0600 to 1200 UTC 20 March 2019
Forecast type: FROM: standard forecast or significant change
Winds: calm
Visibility: 6 miles (10 km)
Ceiling: 1800 feet AGL
Clouds: broken clouds at 1800 feet AGL
Weather: HZ  (haze)
Text: PROB40 2009/2912 5SM -RA BKN015
Forecast period: 0900 UTC 20 March 2019 to 1200 UTC 29 March 2019
Forecast type: PROBABLE: 40 percent likelihood of the following during this time
Visibility: 5 miles (8 km)
Ceiling: 1500 feet AGL
Clouds: broken clouds at 1500 feet AGL
Weather: -RA  (light rain)